Terminal Aerodrome Forecast
Issued by NWS

Home | Current Version | Previous Version | Text Only | Print | Product List | Glossary On
Versions: 1 2 3 4 5 6 7 8 9 10 11 12 13 14
000
FTUS43 KOAX 241738
TAFCDR
TAF
KCDR 241738Z 2418/2518 29010G20KT P6SM SCT150
     FM242100 36007KT P6SM SCT150
     FM250200 12005KT P6SM SKC=

USA.gov is the U.S. government's official web portal to all federal, state and local government web resources and services.